Time;durP1;ratioP1;P1;durP2;ratioP2;P2;SDS_P1;SDS_P2;PMS_P1;PMS_P2;Temp;Humidity;BMP_temperature;BMP_pressure;BME280_temperature;BME280_humidity;BME280_pressure;Samples;Min_cycle;Max_cycle;Signal;HPM_P1;HPM_P2
2024/02/09 00:02:06;;;;;;;;;21.00;15.00;;;;;0.80;88.46;99007.55;112522;240;160910;-55
2024/02/09 00:04:43;;;;;;;;;16.25;13.00;;;;;0.83;88.60;99011.88;112731;243;39002;-57
2024/02/09 00:07:19;;;;;;;;;24.50;17.00;;;;;0.84;88.75;99009.79;112466;241;161426;-56
2024/02/09 00:10:01;;;;;;;;;25.00;16.50;;;;;0.84;88.80;99002.31;112747;243;39164;-52
2024/02/09 00:12:43;;;;;;;;;20.00;15.00;;;;;0.82;88.88;98998.89;112575;243;39513;-52
2024/02/09 00:15:20;;;;;;;;;19.00;15.00;;;;;0.80;88.93;98996.64;112696;243;160404;-56
2024/02/09 00:17:59;;;;;;;;;28.00;19.33;;;;;0.82;88.98;98991.94;112453;244;40506;-57
2024/02/09 00:20:35;;;;;;;;;16.50;11.75;;;;;0.79;89.11;98985.21;112504;241;160343;-56
2024/02/09 00:23:18;;;;;;;;;23.00;16.00;;;;;0.77;89.10;98984.72;112561;243;40530;-54
2024/02/09 00:26:02;;;;;;;;;23.33;17.00;;;;;0.75;89.12;98986.73;112511;241;161174;-53
2024/02/09 00:28:44;;;;;;;;;20.00;14.50;;;;;0.73;89.04;98986.87;112439;244;40699;-57
2024/02/09 00:31:25;;;;;;;;;17.00;13.00;;;;;0.70;89.16;98988.52;112416;241;160401;-57
2024/02/09 00:34:04;;;;;;;;;21.00;15.00;;;;;0.65;89.19;98988.50;112880;243;41295;-53
2024/02/09 00:36:40;;;;;;;;;16.00;12.00;;;;;0.61;89.28;98989.38;112981;243;40993;-53
2024/02/09 00:39:15;;;;;;;;;20.75;14.75;;;;;0.61;89.31;98996.45;112771;240;161493;-52
2024/02/09 00:41:55;;;;;;;;;19.50;13.50;;;;;0.58;89.49;98995.58;113524;243;39761;-52
2024/02/09 00:44:40;;;;;;;;;21.25;13.25;;;;;0.56;89.55;98997.04;113061;240;160983;-53
2024/02/09 00:47:22;;;;;;;;;19.00;14.00;;;;;0.55;89.51;98995.83;113496;243;40001;-53
2024/02/09 00:50:04;;;;;;;;;19.00;15.00;;;;;0.57;89.52;99000.02;113151;243;161188;-56
2024/02/09 00:52:43;;;;;;;;;18.00;14.00;;;;;0.58;89.66;99001.56;113102;243;40127;-56
2024/02/09 00:55:17;;;;;;;;;20.00;15.67;;;;;0.60;89.69;99003.49;112993;240;161114;-56
2024/02/09 00:57:57;;;;;;;;;17.00;14.00;;;;;0.65;89.71;98996.67;112927;243;40665;-57
2024/02/09 01:00:40;;;;;;;;;21.00;15.00;;;;;0.64;89.78;98998.36;113100;243;39160;-56
2024/02/09 01:03:21;;;;;;;;;17.67;13.67;;;;;0.64;89.80;98991.05;112707;243;160420;-53
2024/02/09 01:06:00;;;;;;;;;20.50;15.00;;;;;0.65;89.78;98988.66;113237;244;39276;-53
2024/02/09 01:08:41;;;;;;;;;20.25;17.00;;;;;0.65;89.84;98990.77;112777;240;160417;-56
2024/02/09 01:11:20;;;;;;;;;21.25;17.25;;;;;0.61;89.72;98987.06;112837;243;40529;-56
2024/02/09 02:46:24;;;;;;;;;37.00;26.67;;;;;0.82;91.88;98966.66;112428;244;39498;-53
2024/02/09 03:06:22;;;;;;;;;39.25;28.00;;;;;0.83;91.94;98961.70;112620;244;40584;-54
2024/02/09 03:09:08;;;;;;;;;42.67;31.00;;;;;0.82;92.06;98962.58;112388;241;162127;-53
2024/02/09 03:11:50;;;;;;;;;24.75;19.25;;;;;0.86;91.95;98957.72;112483;245;39798;-52
2024/02/09 03:14:30;;;;;;;;;30.75;22.00;;;;;0.86;91.98;98956.95;112395;241;160426;-57
2024/02/09 03:17:13;;;;;;;;;34.50;26.25;;;;;0.86;92.00;98961.71;112465;245;39789;-57
2024/02/09 03:20:00;;;;;;;;;32.50;24.00;;;;;0.79;92.08;98960.71;112385;245;161656;-53
2024/02/09 03:22:44;;;;;;;;;34.00;25.00;;;;;0.72;92.25;98967.98;112474;245;39510;-53
2024/02/09 03:25:25;;;;;;;;;30.67;22.00;;;;;0.73;92.29;98969.50;112384;242;161349;-52
2024/02/09 03:28:08;;;;;;;;;24.50;18.50;;;;;0.74;92.33;98967.11;112444;245;40123;-53
2024/02/09 03:30:47;;;;;;;;;36.00;25.33;;;;;0.72;92.43;98969.78;112442;245;40370;-55
2024/02/09 03:33:31;;;;;;;;;32.00;21.00;;;;;0.75;92.52;98970.60;112314;242;161251;-53
2024/02/09 03:36:09;;;;;;;;;42.00;30.00;;;;;0.78;92.56;98977.50;112478;245;39245;-52
2024/02/09 03:38:46;;;;;;;;;39.25;27.00;;;;;0.79;92.62;98988.88;112393;241;161006;-53
2024/02/09 03:41:31;;;;;;;;;33.25;24.50;;;;;0.78;92.75;98987.58;112470;245;39647;-53
2024/02/09 03:44:13;;;;;;;;;24.25;20.00;;;;;0.79;92.86;98985.68;112436;241;161271;-55
2024/02/09 03:46:58;;;;;;;;;27.00;19.33;;;;;0.81;92.93;98986.89;112543;245;39395;-56
2024/02/09 03:49:43;;;;;;;;;29.75;21.00;;;;;0.84;92.83;98982.20;112378;242;161333;-52
2024/02/09 03:52:24;;;;;;;;;34.00;23.00;;;;;0.80;93.01;98985.93;112541;245;39625;-52
2024/02/09 03:55:01;;;;;;;;;37.67;26.00;;;;;0.78;93.00;98983.02;112606;246;39387;-56
2024/02/09 03:57:44;;;;;;;;;52.75;34.50;;;;;0.79;93.20;98983.92;112349;242;160780;-57
2024/02/09 04:00:21;;;;;;;;;49.50;32.75;;;;;0.80;93.09;98982.73;112599;245;39209;-55
2024/02/09 04:03:03;;;;;;;;;37.75;28.00;;;;;0.78;93.13;98986.33;112362;243;160557;-55
2024/02/09 04:05:45;;;;;;;;;27.50;19.00;;;;;0.86;93.09;98996.64;112528;245;38942;-55
2024/02/09 04:08:27;;;;;;;;;26.25;18.25;;;;;0.91;93.04;99001.50;112374;245;161340;-56
2024/02/09 04:11:04;;;;;;;;;26.00;19.00;;;;;0.89;93.11;99005.95;111938;245;657608;-56
2024/02/09 04:13:41;;;;;;;;;30.00;21.50;;;;;0.87;93.19;99006.52;112376;242;160703;-52
2024/02/09 04:16:18;;;;;;;;;47.00;29.00;;;;;0.90;93.13;98999.30;112452;245;39780;-51
2024/02/09 04:18:52;;;;;;;;;39.00;27.00;;;;;0.88;93.14;99000.16;112641;245;39562;-55
2024/02/09 04:21:30;;;;;;;;;30.75;20.75;;;;;0.83;93.31;99002.61;112346;242;160416;-56
2024/02/09 04:24:09;;;;;;;;;35.00;24.00;;;;;0.76;93.44;98992.28;112599;246;39951;-52
2024/02/09 04:26:45;;;;;;;;;48.00;31.00;;;;;0.75;93.34;98988.26;112345;242;161086;-52
2024/02/09 04:29:19;;;;;;;;;35.33;25.00;;;;;0.77;93.36;98983.86;112595;245;40825;-55
2024/02/09 04:32:04;;;;;;;;;33.25;23.25;;;;;0.77;93.35;98979.23;112417;242;161256;-56
2024/02/09 04:34:39;;;;;;;;;38.00;27.00;;;;;0.72;93.43;98985.73;112531;245;41331;-51
2024/02/09 04:37:20;;;;;;;;;26.00;21.00;;;;;0.76;93.44;98974.75;112571;245;39595;-51
2024/02/09 04:40:03;;;;;;;;;17.00;13.25;;;;;0.75;93.43;98960.00;112491;245;39716;-55
2024/02/09 04:42:45;;;;;;;;;23.00;17.00;;;;;0.72;93.46;98944.67;112470;245;39263;-55
2024/02/09 04:45:25;;;;;;;;;25.50;18.00;;;;;0.69;93.59;98940.52;112353;244;162354;-51
2024/02/09 04:48:06;;;;;;;;;21.00;16.50;;;;;0.63;93.80;98939.11;112556;245;39634;-54
2024/02/09 04:50:41;;;;;;;;;26.00;19.50;;;;;0.57;93.74;98938.80;112375;244;160830;-54
2024/02/09 04:53:22;;;;;;;;;26.00;19.25;;;;;0.57;93.70;98940.15;112480;244;39623;-55
2024/02/09 04:56:05;;;;;;;;;24.00;19.00;;;;;0.53;94.06;98945.52;112282;242;161042;-54
2024/02/09 04:58:47;;;;;;;;;25.25;19.00;;;;;0.59;93.96;98939.64;112431;244;39446;-55
2024/02/09 05:01:37;;;;;;;;;31.75;24.00;;;;;0.62;93.82;98938.64;112334;242;161367;-56
2024/02/09 05:04:15;;;;;;;;;31.00;21.33;;;;;0.55;94.09;98942.73;112479;244;40138;-55
2024/02/09 05:06:56;;;;;;;;;35.50;25.00;;;;;0.52;94.07;98956.80;112468;244;39817;-56
2024/02/09 05:09:37;;;;;;;;;22.50;17.50;;;;;0.55;94.07;98960.63;112320;242;162405;-52
2024/02/09 05:12:15;;;;;;;;;18.00;13.00;;;;;0.56;94.12;98968.45;112455;244;39564;-52
2024/02/09 05:14:56;;;;;;;;;27.00;20.00;;;;;0.56;94.19;98965.42;112363;242;161360;-55
2024/02/09 05:17:33;;;;;;;;;28.00;20.00;;;;;0.63;94.16;98970.95;112409;244;39909;-55
2024/02/09 05:20:13;;;;;;;;;26.67;18.00;;;;;0.65;94.12;98973.61;112345;242;161288;-52
2024/02/09 05:22:50;;;;;;;;;22.50;16.50;;;;;0.66;94.18;98971.13;112428;244;40098;-52
2024/02/09 05:25:32;;;;;;;;;25.00;18.67;;;;;0.63;94.23;98967.64;112348;242;161036;-56
2024/02/09 05:28:10;;;;;;;;;23.00;15.75;;;;;0.67;94.35;98957.29;112513;244;40879;-55
2024/02/09 05:30:45;;;;;;;;;31.00;20.00;;;;;0.66;94.21;98958.25;112509;244;40422;-54
2024/02/09 05:33:21;;;;;;;;;30.25;20.00;;;;;0.63;94.27;98958.44;112365;242;161051;-52
2024/02/09 05:36:05;;;;;;;;;27.25;21.75;;;;;0.56;94.41;98957.85;112522;244;39448;-52
2024/02/09 05:38:46;;;;;;;;;24.00;16.00;;;;;0.55;94.43;98957.88;112361;242;162587;-55
2024/02/09 05:41:25;;;;;;;;;13.50;10.00;;;;;0.52;94.42;98963.21;112473;244;40933;-55
2024/02/09 05:44:11;;;;;;;;;22.25;15.75;;;;;0.43;94.58;98959.27;112332;241;161366;-56
2024/02/09 05:46:55;;;;;;;;;25.00;19.00;;;;;0.44;94.58;98953.45;112474;245;41315;-56
2024/02/09 05:49:37;;;;;;;;;26.00;18.00;;;;;0.44;94.71;98945.52;112364;241;161112;-56
2024/02/09 05:52:21;;;;;;;;;22.50;15.00;;;;;0.41;94.78;98939.27;112490;244;40336;-56
2024/02/09 05:55:01;;;;;;;;;24.00;17.00;;;;;0.41;94.80;98935.31;112471;244;40095;-54
2024/02/09 05:57:41;;;;;;;;;24.75;18.00;;;;;0.40;94.85;98936.31;112279;244;161121;-55
2024/02/09 06:00:19;;;;;;;;;23.25;17.25;;;;;0.45;94.67;98945.27;112455;245;40844;-52
2024/02/09 06:02:56;;;;;;;;;24.67;18.00;;;;;0.45;94.77;98947.88;112330;241;161296;-52
2024/02/09 06:05:33;;;;;;;;;17.00;13.25;;;;;0.47;94.85;98948.73;112482;244;39150;-52
2024/02/09 06:08:09;;;;;;;;;19.00;12.75;;;;;0.53;94.91;98946.18;112399;241;161551;-54
2024/02/09 06:10:44;;;;;;;;;28.00;19.00;;;;;0.57;94.92;98949.98;112446;245;40911;-55
2024/02/09 06:13:25;;;;;;;;;25.00;18.25;;;;;0.57;94.98;98946.58;112527;245;39610;-53
2024/02/09 06:16:03;;;;;;;;;23.25;16.00;;;;;0.59;95.03;98955.06;112457;245;41106;-52
2024/02/09 06:18:42;;;;;;;;;21.33;14.33;;;;;0.61;95.11;98954.67;112538;245;40769;-52
2024/02/09 06:21:22;;;;;;;;;23.00;17.00;;;;;0.59;95.15;98962.77;112369;241;160914;-52
2024/02/09 06:23:57;;;;;;;;;17.00;13.00;;;;;0.63;95.21;98962.42;112551;244;40083;-52
2024/02/09 06:26:34;;;;;;;;;23.75;17.00;;;;;0.66;95.12;98965.81;112349;242;161238;-52
2024/02/09 06:29:10;;;;;;;;;22.75;17.00;;;;;0.72;95.10;98968.36;112428;244;39635;-52
2024/02/09 06:31:48;;;;;;;;;20.50;15.00;;;;;0.75;95.01;98971.42;112327;243;163081;-52
2024/02/09 06:34:30;;;;;;;;;21.00;14.50;;;;;0.79;95.08;98969.77;112445;244;39227;-53
2024/02/09 06:37:08;;;;;;;;;17.67;12.00;;;;;0.83;95.07;98967.54;112431;245;38940;-52
2024/02/09 06:39:50;;;;;;;;;22.33;15.33;;;;;0.87;95.04;98965.74;112316;242;160731;-52
2024/02/09 06:42:32;;;;;;;;;17.33;13.00;;;;;0.90;95.00;98961.10;112437;245;39895;-53
2024/02/09 06:45:14;;;;;;;;;19.00;14.00;;;;;0.86;95.10;98956.30;112326;244;160705;-52
2024/02/09 06:47:58;;;;;;;;;16.00;12.00;;;;;0.87;95.08;98956.14;112465;244;41528;-52
2024/02/09 06:50:44;;;;;;;;;13.00;9.00;;;;;0.95;94.92;98957.26;112331;242;160991;-57
2024/02/09 06:53:26;;;;;;;;;22.00;14.00;;;;;1.00;94.74;98952.64;112506;244;38942;-53
2024/02/09 06:56:03;;;;;;;;;13.00;10.00;;;;;1.04;94.75;98961.36;112364;241;161102;-52
2024/02/09 06:58:46;;;;;;;;;19.00;15.00;;;;;1.01;94.74;98958.15;112518;244;39103;-52
2024/02/09 07:01:27;;;;;;;;;21.25;14.25;;;;;1.08;94.59;98960.96;112525;244;41167;-52
2024/02/09 07:04:16;;;;;;;;;19.00;12.33;;;;;1.11;94.49;98965.27;112489;243;40536;-56
2024/02/09 07:06:52;;;;;;;;;13.00;10.00;;;;;1.14;94.37;98971.48;112595;243;40232;-55
2024/02/09 07:09:30;;;;;;;;;7.33;5.00;;;;;1.14;94.21;98964.91;112370;241;160237;-53
2024/02/09 07:12:09;;;;;;;;;11.50;8.00;;;;;1.14;94.08;98956.55;112470;245;39553;-52
2024/02/09 07:14:46;;;;;;;;;14.50;10.00;;;;;1.17;93.90;98948.83;112325;242;161972;-53
2024/02/09 07:17:35;;;;;;;;;9.75;7.00;;;;;1.16;93.85;98948.37;112426;244;39437;-53
2024/02/09 07:20:16;;;;;;;;;13.00;9.25;;;;;1.17;93.77;98940.30;112318;241;160887;-52
2024/02/09 07:23:00;;;;;;;;;16.50;10.00;;;;;1.20;93.85;98944.55;112428;244;40558;-52
2024/02/09 07:25:45;;;;;;;;;11.00;8.00;;;;;1.24;93.82;98944.29;112310;241;161354;-52
2024/02/09 07:28:23;;;;;;;;;14.00;11.00;;;;;1.32;93.76;98941.33;112512;244;40602;-52
2024/02/09 07:31:06;;;;;;;;;12.00;9.25;;;;;1.38;93.59;98935.88;112433;244;39613;-51
2024/02/09 07:33:46;;;;;;;;;13.00;10.00;;;;;1.37;93.34;98930.61;112349;241;160599;-56
2024/02/09 07:36:27;;;;;;;;;12.00;9.00;;;;;1.30;93.43;98929.55;112444;245;39871;-56
2024/02/09 07:39:07;;;;;;;;;9.50;7.50;;;;;1.35;93.51;98928.95;112337;241;160900;-52
2024/02/09 07:41:48;;;;;;;;;12.75;7.75;;;;;1.41;93.37;98925.20;112481;244;39263;-52
2024/02/09 07:44:24;;;;;;;;;12.75;9.25;;;;;1.47;93.19;98921.20;112439;241;160873;-52
2024/02/09 07:47:04;;;;;;;;;10.25;7.00;;;;;1.49;93.20;98919.73;112458;244;39873;-51
2024/02/09 07:49:40;;;;;;;;;9.50;7.00;;;;;1.54;93.14;98919.94;112408;241;161994;-55
2024/02/09 07:52:17;;;;;;;;;11.00;7.00;;;;;1.55;93.11;98922.11;112560;244;40035;-54
2024/02/09 07:54:56;;;;;;;;;14.00;11.00;;;;;1.62;92.90;98912.40;112503;244;40030;-53
2024/02/09 07:57:31;;;;;;;;;10.00;7.00;;;;;1.65;92.90;98915.08;112306;244;160980;-54
2024/02/09 08:00:10;;;;;;;;;8.25;6.00;;;;;1.68;92.63;98912.27;112519;245;39703;-52
2024/02/09 08:02:45;;;;;;;;;14.50;10.75;;;;;1.71;92.32;98911.11;112415;241;160820;-53
2024/02/09 08:05:24;;;;;;;;;17.50;10.75;;;;;1.68;92.37;98911.98;112531;244;39715;-51
2024/02/09 08:08:09;;;;;;;;;9.50;7.00;;;;;1.72;92.37;98912.88;112335;241;161135;-54
2024/02/09 08:10:53;;;;;;;;;7.75;5.00;;;;;1.77;92.24;98910.41;112411;244;40415;-54
2024/02/09 08:13:32;;;;;;;;;11.67;7.00;;;;;1.77;92.20;98905.41;112454;245;39920;-53
2024/02/09 08:16:10;;;;;;;;;10.25;7.00;;;;;1.85;92.25;98909.52;112351;243;39815;-53
2024/02/09 08:18:51;;;;;;;;;10.00;8.00;;;;;1.92;91.95;98917.27;112518;243;40318;-54
2024/02/09 08:21:31;;;;;;;;;5.00;4.00;;;;;1.98;91.77;98923.87;112334;242;160449;-54
2024/02/09 08:24:14;;;;;;;;;9.25;8.00;;;;;2.00;91.74;98925.25;112479;245;39994;-55
2024/02/09 08:26:58;;;;;;;;;9.00;7.00;;;;;1.99;91.57;98916.30;112304;242;161714;-55
2024/02/09 08:29:36;;;;;;;;;5.25;4.00;;;;;2.02;91.19;98909.73;112492;244;39994;-52
2024/02/09 08:32:17;;;;;;;;;8.00;6.25;;;;;2.02;90.95;98907.23;112464;241;160883;-51
2024/02/09 08:34:56;;;;;;;;;5.33;4.00;;;;;2.06;90.94;98909.06;112740;243;39423;-52
2024/02/09 08:37:33;;;;;;;;;15.00;11.00;;;;;2.08;90.76;98917.37;112585;243;40829;-51
2024/02/09 08:40:10;;;;;;;;;10.75;6.50;;;;;2.14;90.88;98916.19;112478;245;40460;-52
2024/02/09 08:42:48;;;;;;;;;6.75;5.00;;;;;2.23;90.84;98917.58;112479;245;40104;-54
2024/02/09 08:45:27;;;;;;;;;5.25;4.00;;;;;2.28;90.72;98914.23;112483;241;160193;-56
2024/02/09 08:48:07;;;;;;;;;7.50;4.00;;;;;2.30;90.51;98910.45;112480;244;39577;-56
2024/02/09 08:50:44;;;;;;;;;8.00;6.00;;;;;2.33;90.05;98910.05;112391;242;160167;-52
2024/02/09 08:53:25;;;;;;;;;4.75;3.25;;;;;2.34;89.73;98907.50;112528;244;40909;-55
2024/02/09 08:56:09;;;;;;;;;5.00;3.67;;;;;2.28;89.48;98898.05;112284;244;160187;-55
2024/02/09 08:58:50;;;;;;;;;8.50;5.50;;;;;2.33;89.54;98889.66;112655;244;40308;-56
2024/02/09 09:01:25;;;;;;;;;5.00;3.33;;;;;2.28;89.41;98892.17;112868;243;40362;-57
2024/02/09 09:04:03;;;;;;;;;5.00;3.00;;;;;2.31;89.48;98882.64;112547;243;39663;-56
2024/02/09 09:06:42;;;;;;;;;8.00;4.00;;;;;2.32;89.20;98882.14;112877;243;40227;-56
2024/02/09 09:09:22;;;;;;;;;6.00;4.25;;;;;2.32;89.22;98873.65;112741;240;160730;-55
2024/02/09 09:12:04;;;;;;;;;5.00;4.00;;;;;2.35;89.27;98871.17;112825;243;39477;-55
2024/02/09 09:14:43;;;;;;;;;7.00;5.00;;;;;2.37;89.06;98877.45;112751;240;160490;-52
2024/02/09 09:17:29;;;;;;;;;9.25;6.50;;;;;2.36;89.00;98873.90;112946;243;41048;-52
2024/02/09 09:20:10;;;;;;;;;6.67;4.00;;;;;2.38;89.04;98879.81;112844;240;160114;-55
2024/02/09 09:22:52;;;;;;;;;7.00;5.00;;;;;2.40;88.72;98879.30;112855;243;39574;-56
2024/02/09 09:25:32;;;;;;;;;4.00;3.25;;;;;2.40;88.94;98882.39;113012;243;39189;-55
2024/02/09 09:28:12;;;;;;;;;7.00;5.75;;;;;2.34;88.60;98886.86;112494;244;39686;-54
2024/02/09 09:30:51;;;;;;;;;5.75;4.50;;;;;2.36;88.34;98886.48;112505;244;39264;-53
2024/02/09 09:33:28;;;;;;;;;6.00;4.00;;;;;2.34;88.29;98886.83;112344;244;160611;-56
2024/02/09 09:36:07;;;;;;;;;2.67;2.00;;;;;2.36;88.39;98881.89;112458;244;40048;-55
2024/02/09 09:38:46;;;;;;;;;8.75;6.00;;;;;2.40;88.65;98883.73;112319;241;161931;-53
2024/02/09 09:41:23;;;;;;;;;5.25;4.00;;;;;2.41;88.74;98883.27;112447;244;39974;-53
2024/02/09 09:44:02;;;;;;;;;4.50;3.25;;;;;2.45;88.71;98885.48;112306;241;160942;-55
2024/02/09 09:46:45;;;;;;;;;6.50;4.00;;;;;2.44;88.52;98885.21;112417;244;40502;-55
2024/02/09 09:49:26;;;;;;;;;6.00;4.00;;;;;2.41;88.95;98876.67;112483;244;41026;-52
2024/02/09 09:52:12;;;;;;;;;6.50;5.00;;;;;2.42;88.83;98868.23;112286;241;159695;-52
2024/02/09 09:54:48;;;;;;;;;7.00;5.00;;;;;2.29;88.73;98869.16;112455;245;40426;-51
2024/02/09 09:57:31;;;;;;;;;7.00;6.00;;;;;2.26;88.99;98877.16;112347;241;160602;-52
2024/02/09 10:00:07;;;;;;;;;4.00;3.25;;;;;2.23;88.87;98867.87;112463;244;41413;-56
2024/02/09 10:02:50;;;;;;;;;7.00;4.50;;;;;2.27;89.20;98865.98;112379;241;161412;-56
2024/02/09 10:05:32;;;;;;;;;6.00;4.00;;;;;2.35;89.35;98867.38;112475;245;40946;-50
2024/02/09 10:08:10;;;;;;;;;7.50;6.00;;;;;2.39;89.45;98867.19;112384;241;162090;-54
2024/02/09 10:10:50;;;;;;;;;4.00;3.00;;;;;2.46;89.33;98866.38;112520;244;40262;-55
2024/02/09 10:13:28;;;;;;;;;7.00;5.00;;;;;2.46;89.17;98868.98;112558;244;39732;-55
2024/02/09 10:16:04;;;;;;;;;5.00;4.50;;;;;2.41;89.28;98870.42;112353;241;160729;-55
2024/02/09 10:18:50;;;;;;;;;6.00;5.00;;;;;2.44;89.49;98868.82;112483;245;39840;-54
2024/02/09 10:21:31;;;;;;;;;9.25;7.00;;;;;2.44;89.25;98864.42;112338;241;159664;-55
2024/02/09 10:24:09;;;;;;;;;7.25;6.00;;;;;2.38;89.26;98864.16;112441;244;39727;-53
2024/02/09 10:26:47;;;;;;;;;14.00;11.00;;;;;2.47;89.51;98862.11;112335;241;161179;-53
2024/02/09 10:29:30;;;;;;;;;7.00;5.00;;;;;2.48;89.37;98860.98;112449;244;39975;-52
2024/02/09 10:32:14;;;;;;;;;8.00;5.00;;;;;2.42;89.31;98859.88;112320;241;161486;-53
2024/02/09 10:35:00;;;;;;;;;14.00;9.00;;;;;2.40;89.45;98859.42;112457;244;40036;-54
2024/02/09 10:37:41;;;;;;;;;7.50;5.00;;;;;2.37;89.48;98855.98;112455;244;41124;-55
2024/02/09 10:40:18;;;;;;;;;6.00;4.00;;;;;2.38;89.30;98852.83;112426;245;40175;-52
2024/02/09 10:42:59;;;;;;;;;7.75;6.00;;;;;2.32;89.23;98852.34;112399;245;41272;-52
2024/02/09 10:45:42;;;;;;;;;9.33;6.67;;;;;2.31;89.31;98848.98;112334;241;160605;-54
2024/02/09 10:48:23;;;;;;;;;5.00;4.00;;;;;2.25;89.24;98844.98;112462;244;40271;-56
2024/02/09 10:51:06;;;;;;;;;6.67;4.00;;;;;2.23;89.38;98840.57;112280;243;160606;-56
2024/02/09 10:54:07;;;;;;;;;6.00;4.00;;;;;2.17;89.40;98840.65;112447;244;40164;-53
2024/02/09 10:56:44;;;;;;;;;4.00;3.00;;;;;2.10;89.39;98837.77;112345;242;160158;-53
2024/02/09 10:59:23;;;;;;;;;6.00;4.00;;;;;2.05;89.25;98836.22;112475;244;40960;-54
2024/02/09 11:02:00;;;;;;;;;6.00;4.00;;;;;1.99;89.34;98829.12;112346;242;160147;-55
2024/02/09 11:04:41;;;;;;;;;3.75;3.00;;;;;1.97;89.30;98826.55;112494;244;39267;-52
2024/02/09 11:07:19;;;;;;;;;6.00;3.75;;;;;1.91;89.22;98817.84;112469;245;40698;-51
2024/02/09 11:09:56;;;;;;;;;5.00;5.00;;;;;1.88;89.43;98822.01;112375;244;160718;-56
2024/02/09 11:12:35;;;;;;;;;6.33;5.00;;;;;1.88;89.66;98821.55;112444;245;39626;-56
2024/02/09 11:15:18;;;;;;;;;8.75;6.50;;;;;1.87;89.85;98822.52;112355;242;160821;-52
2024/02/09 11:17:58;;;;;;;;;7.00;5.00;;;;;1.89;89.91;98824.94;112495;244;39735;-52
2024/02/09 11:20:42;;;;;;;;;9.33;5.00;;;;;1.87;90.15;98819.98;112347;242;162024;-54
2024/02/09 11:23:27;;;;;;;;;5.00;4.00;;;;;1.82;90.26;98819.58;112465;244;40643;-53
2024/02/09 11:26:10;;;;;;;;;3.50;2.00;;;;;1.79;90.30;98818.39;112277;241;160857;-53
2024/02/09 11:28:49;;;;;;;;;5.00;4.00;;;;;1.78;90.51;98820.48;112485;244;41220;-56
2024/02/09 11:31:32;;;;;;;;;9.67;7.00;;;;;1.76;90.66;98807.09;112462;244;39072;-57
2024/02/09 11:34:13;;;;;;;;;5.00;3.25;;;;;1.74;90.80;98797.81;112341;242;160462;-52
2024/02/09 11:36:49;;;;;;;;;4.00;3.00;;;;;1.72;91.04;98798.58;112451;244;39840;-53
2024/02/09 11:39:25;;;;;;;;;6.00;4.75;;;;;1.68;91.15;98791.85;112345;244;160357;-54
2024/02/09 11:42:04;;;;;;;;;9.25;7.50;;;;;1.70;91.23;98787.80;112467;244;39331;-53
2024/02/09 11:44:41;;;;;;;;;7.00;5.00;;;;;1.68;91.52;98787.32;112378;242;160795;-52
2024/02/09 11:47:18;;;;;;;;;10.00;6.00;;;;;1.70;91.47;98776.84;112414;244;39111;-52
2024/02/09 11:50:00;;;;;;;;;5.00;4.00;;;;;1.71;91.74;98773.00;112341;241;161012;-55
2024/02/09 11:52:35;;;;;;;;;15.00;10.00;;;;;1.70;91.79;98768.39;112458;244;39831;-55
2024/02/09 11:55:10;;;;;;;;;7.00;6.00;;;;;1.66;92.08;98765.38;112486;245;40265;-51
2024/02/09 11:57:48;;;;;;;;;4.00;4.00;;;;;1.66;92.05;98765.77;112292;241;161931;-51
2024/02/09 12:00:25;;;;;;;;;6.00;5.00;;;;;1.68;92.15;98764.83;112514;245;40538;-54
2024/02/09 12:03:07;;;;;;;;;6.00;4.67;;;;;1.62;92.37;98764.63;112304;242;160604;-55
2024/02/09 12:05:50;;;;;;;;;7.00;6.00;;;;;1.58;92.59;98760.09;112468;244;40854;-56
2024/02/09 12:08:33;;;;;;;;;5.67;4.33;;;;;1.57;92.59;98756.90;112381;242;160847;-55
2024/02/09 12:11:12;;;;;;;;;7.33;5.67;;;;;1.60;92.65;98759.70;111812;245;830566;-55
2024/02/09 12:13:47;;;;;;;;;7.00;5.75;;;;;1.57;92.95;98750.45;112346;244;162906;-52
2024/02/09 12:16:28;;;;;;;;;7.50;5.75;;;;;1.51;93.12;98753.89;112405;245;39249;-51
2024/02/09 12:19:10;;;;;;;;;4.00;3.00;;;;;1.50;93.20;98766.00;112435;245;39697;-56
2024/02/09 12:21:57;;;;;;;;;9.00;5.25;;;;;1.39;93.59;98764.77;112335;242;160588;-56
2024/02/09 12:24:43;;;;;;;;;9.00;8.00;;;;;1.36;93.73;98767.75;112443;246;39033;-52
2024/02/09 12:27:19;;;;;;;;;6.00;5.00;;;;;1.32;93.87;98755.41;112323;242;160659;-52
2024/02/09 12:29:56;;;;;;;;;8.50;6.50;;;;;1.31;93.93;98743.16;112437;244;39724;-51
2024/02/09 12:32:41;;;;;;;;;4.50;4.00;;;;;1.33;94.10;98732.34;112315;243;160735;-51
2024/02/09 12:35:29;;;;;;;;;6.00;5.00;;;;;1.36;94.15;98739.27;112432;244;39447;-52
2024/02/09 12:38:09;;;;;;;;;7.75;4.00;;;;;1.32;94.26;98748.17;112337;244;160969;-53
2024/02/09 12:40:47;;;;;;;;;2.50;2.00;;;;;1.31;94.13;98745.28;112478;245;40945;-54
2024/02/09 12:43:26;;;;;;;;;3.50;3.00;;;;;1.28;94.40;98748.81;112566;245;39701;-52
2024/02/09 12:46:04;;;;;;;;;5.00;4.00;;;;;1.29;94.38;98752.51;112328;244;160909;-51
2024/02/09 12:48:44;;;;;;;;;8.00;5.00;;;;;1.29;94.25;98750.35;112497;245;39085;-51
2024/02/09 12:51:28;;;;;;;;;8.00;6.00;;;;;1.31;94.27;98753.77;112344;242;160772;-51
2024/02/09 12:54:07;;;;;;;;;8.00;5.75;;;;;1.42;94.16;98745.98;112502;244;39807;-54
2024/02/09 12:56:50;;;;;;;;;8.00;5.75;;;;;1.43;94.34;98740.71;112340;242;160831;-52
2024/02/09 12:59:34;;;;;;;;;8.00;6.75;;;;;1.40;94.52;98735.27;112477;245;41046;-55
2024/02/09 13:02:20;;;;;;;;;4.25;3.00;;;;;1.43;94.63;98734.08;112316;242;161391;-55
2024/02/09 13:05:02;;;;;;;;;3.67;2.67;;;;;1.38;94.70;98743.43;112549;244;40520;-51
2024/02/09 13:07:41;;;;;;;;;8.00;6.00;;;;;1.36;94.75;98739.92;112466;245;39539;-52
2024/02/09 13:10:30;;;;;;;;;7.67;5.00;;;;;1.37;94.84;98743.37;112471;245;41322;-52
2024/02/09 13:13:08;;;;;;;;;7.00;5.00;;;;;1.34;94.77;98736.63;112473;245;39243;-52
2024/02/09 13:15:45;;;;;;;;;2.00;2.00;;;;;1.34;95.01;98731.46;112355;241;161063;-51
2024/02/09 13:18:26;;;;;;;;;8.50;5.50;;;;;1.28;95.10;98728.07;112540;244;39421;-54
2024/02/09 13:21:04;;;;;;;;;3.00;2.00;;;;;1.26;95.25;98722.46;112482;240;160513;-55
2024/02/09 13:23:45;;;;;;;;;3.25;2.00;;;;;1.16;95.47;98716.98;112954;243;39942;-55
2024/02/09 13:26:28;;;;;;;;;6.00;4.50;;;;;1.19;95.51;98713.63;112820;240;160905;-55
2024/02/09 13:29:05;;;;;;;;;3.25;2.75;;;;;1.27;95.49;98710.17;112911;243;40560;-52
2024/02/09 13:31:47;;;;;;;;;6.00;4.00;;;;;1.23;95.52;98709.66;113020;243;40237;-51
2024/02/09 13:34:30;;;;;;;;;3.75;3.25;;;;;1.25;95.53;98700.58;112482;244;39637;-55
2024/02/09 13:37:08;;;;;;;;;6.00;4.25;;;;;1.28;95.58;98696.52;112505;244;39670;-55
2024/02/09 13:39:53;;;;;;;;;5.75;4.00;;;;;1.26;95.58;98694.96;112383;242;160716;-56
2024/02/09 13:42:40;;;;;;;;;9.00;7.00;;;;;1.28;95.51;98692.44;112505;245;41228;-56
2024/02/09 13:45:21;;;;;;;;;7.00;5.00;;;;;1.31;95.47;98681.52;112280;242;160621;-52
2024/02/09 13:48:01;;;;;;;;;17.00;12.50;;;;;1.26;95.75;98678.28;112419;244;40088;-51
2024/02/09 13:50:43;;;;;;;;;29.00;20.00;;;;;1.28;95.71;98675.08;112330;241;161133;-55
2024/02/09 13:53:27;;;;;;;;;10.50;6.75;;;;;1.31;95.68;98666.26;112473;244;40108;-55
2024/02/09 13:56:09;;;;;;;;;11.67;8.67;;;;;1.32;95.65;98658.67;112315;241;160991;-56
2024/02/09 13:58:46;;;;;;;;;13.00;9.00;;;;;1.26;95.99;98650.45;112541;244;39509;-55
2024/02/09 14:01:24;;;;;;;;;16.75;11.00;;;;;1.22;96.06;98644.06;112470;244;41340;-55
2024/02/09 14:03:58;;;;;;;;;9.33;7.33;;;;;1.23;96.17;98643.63;112356;243;161217;-52
2024/02/09 14:06:35;;;;;;;;;12.25;8.50;;;;;1.23;96.23;98646.05;112482;245;39130;-52
2024/02/09 14:09:10;;;;;;;;;15.00;10.00;;;;;1.19;96.14;98644.48;112328;243;161078;-56
2024/02/09 14:11:51;;;;;;;;;4.50;3.50;;;;;1.18;96.22;98649.76;112511;244;40010;-56
2024/02/09 14:14:41;;;;;;;;;9.00;6.50;;;;;1.16;96.21;98637.63;112326;241;161453;-56
2024/02/09 14:17:17;;;;;;;;;10.00;7.50;;;;;1.13;96.45;98630.17;112374;244;39054;-56
2024/02/09 14:19:57;;;;;;;;;7.25;6.00;;;;;1.13;96.21;98630.49;112449;245;39510;-53